sensor_id;sensor_type;location;lat;lon;timestamp;pressure;altitude;pressure_sealevel;temperature;humidity
45793;BME280;31495;42.740;22.908;2023-02-15T00:00:29;94248.84;;;0.26;76.64
45793;BME280;31495;42.740;22.908;2023-02-15T00:01:29;94208.19;;;-0.08;76.06
45793;BME280;31495;42.740;22.908;2023-02-15T00:02:29;94247.75;;;0.07;76.84
45793;BME280;31495;42.740;22.908;2023-02-15T00:03:29;94239.19;;;-0.03;76.73
45793;BME280;31495;42.740;22.908;2023-02-15T00:04:28;94253.03;;;0.15;76.27
45793;BME280;31495;42.740;22.908;2023-02-15T00:05:45;94188.81;;;-0.21;76.44
45793;BME280;31495;42.740;22.908;2023-02-15T00:06:44;94255.13;;;0.22;76.35
45793;BME280;31495;42.740;22.908;2023-02-15T00:07:44;94261.72;;;0.02;77.15
45793;BME280;31495;42.740;22.908;2023-02-15T00:08:43;94262.09;;;-0.03;77.37
45793;BME280;31495;42.740;22.908;2023-02-15T00:09:45;94250.88;;;-0.12;77.72
45793;BME280;31495;42.740;22.908;2023-02-15T00:10:44;94224.88;;;-0.38;78.26
45793;BME280;31495;42.740;22.908;2023-02-15T00:11:43;94229.84;;;-0.37;78.53
45793;BME280;31495;42.740;22.908;2023-02-15T00:12:49;94248.00;;;-0.19;78.25
45793;BME280;31495;42.740;22.908;2023-02-15T00:13:48;94254.47;;;-0.14;78.29
45793;BME280;31495;42.740;22.908;2023-02-15T00:14:48;94252.97;;;-0.28;78.63
45793;BME280;31495;42.740;22.908;2023-02-15T00:15:47;94226.28;;;-0.45;79.14
45793;BME280;31495;42.740;22.908;2023-02-15T00:16:48;94221.53;;;-0.50;78.99
45793;BME280;31495;42.740;22.908;2023-02-15T00:17:48;94223.75;;;-0.45;78.89
45793;BME280;31495;42.740;22.908;2023-02-15T00:18:47;94204.44;;;-0.59;78.98
45793;BME280;31495;42.740;22.908;2023-02-15T00:19:47;94235.06;;;-0.49;79.13
45793;BME280;31495;42.740;22.908;2023-02-15T00:20:46;94239.22;;;-0.37;79.03
45793;BME280;31495;42.740;22.908;2023-02-15T00:21:47;94238.31;;;-0.36;79.06
45793;BME280;31495;42.740;22.908;2023-02-15T00:22:47;94217.75;;;-0.56;79.16
45793;BME280;31495;42.740;22.908;2023-02-15T00:23:46;94259.22;;;-0.32;79.29
45793;BME280;31495;42.740;22.908;2023-02-15T00:24:45;94252.97;;;-0.28;79.11
45793;BME280;31495;42.740;22.908;2023-02-15T00:25:45;94184.47;;;-0.64;78.92
45793;BME280;31495;42.740;22.908;2023-02-15T00:26:45;94241.19;;;-0.29;78.84
45793;BME280;31495;42.740;22.908;2023-02-15T00:27:45;94238.88;;;-0.32;78.65
45793;BME280;31495;42.740;22.908;2023-02-15T00:28:44;94226.28;;;-0.45;78.69
45793;BME280;31495;42.740;22.908;2023-02-15T00:29:43;94263.25;;;-0.19;78.91
45793;BME280;31495;42.740;22.908;2023-02-15T00:30:43;94254.59;;;-0.27;78.77
45793;BME280;31495;42.740;22.908;2023-02-15T00:31:42;94265.22;;;-0.22;79.01
45793;BME280;31495;42.740;22.908;2023-02-15T00:32:42;94252.16;;;-0.29;78.95
45793;BME280;31495;42.740;22.908;2023-02-15T00:33:41;94235.06;;;-0.38;79.03
45793;BME280;31495;42.740;22.908;2023-02-15T00:34:41;94271.34;;;-0.13;78.96
45793;BME280;31495;42.740;22.908;2023-02-15T00:35:40;94253.41;;;-0.23;78.89
45793;BME280;31495;42.740;22.908;2023-02-15T00:36:40;94260.38;;;-0.14;78.74
45793;BME280;31495;42.740;22.908;2023-02-15T00:37:39;94257.94;;;-0.04;78.38
45793;BME280;31495;42.740;22.908;2023-02-15T00:38:39;94245.22;;;-0.04;77.84
45793;BME280;31495;42.740;22.908;2023-02-15T00:39:38;94269.47;;;0.11;77.84
45793;BME280;31495;42.740;22.908;2023-02-15T00:40:38;94249.84;;;-0.09;78.16
45793;BME280;31495;42.740;22.908;2023-02-15T00:41:37;94264.03;;;-0.07;78.60
45793;BME280;31495;42.740;22.908;2023-02-15T00:42:37;94256.69;;;-0.10;78.52
45793;BME280;31495;42.740;22.908;2023-02-15T00:43:36;94260.81;;;-0.09;78.93
45793;BME280;31495;42.740;22.908;2023-02-15T00:44:36;94267.66;;;-0.09;78.75
45793;BME280;31495;42.740;22.908;2023-02-15T00:45:36;94266.84;;;-0.10;78.66
45793;BME280;31495;42.740;22.908;2023-02-15T00:46:36;94254.94;;;-0.21;79.16
45793;BME280;31495;42.740;22.908;2023-02-15T00:47:36;94268.78;;;-0.13;79.22
45793;BME280;31495;42.740;22.908;2023-02-15T00:48:35;94256.78;;;-0.11;78.98
45793;BME280;31495;42.740;22.908;2023-02-15T00:49:34;94263.13;;;-0.06;78.91
45793;BME280;31495;42.740;22.908;2023-02-15T00:50:34;94212.66;;;-0.44;79.14
45793;BME280;31495;42.740;22.908;2023-02-15T00:51:33;94235.88;;;-0.26;78.98
45793;BME280;31495;42.740;22.908;2023-02-15T00:52:33;94261.97;;;-0.02;78.64
45793;BME280;31495;42.740;22.908;2023-02-15T00:53:32;94218.53;;;-0.21;78.69
45793;BME280;31495;42.740;22.908;2023-02-15T00:54:32;94225.56;;;-0.13;78.43
45793;BME280;31495;42.740;22.908;2023-02-15T00:55:31;94251.09;;;-0.04;78.65
45793;BME280;31495;42.740;22.908;2023-02-15T00:56:31;94265.22;;;0.01;78.61
45793;BME280;31495;42.740;22.908;2023-02-15T00:57:30;94264.75;;;-0.05;78.94
45793;BME280;31495;42.740;22.908;2023-02-15T00:58:30;94198.66;;;-0.39;78.78
45793;BME280;31495;42.740;22.908;2023-02-15T00:59:29;94251.94;;;-0.03;78.65
45793;BME280;31495;42.740;22.908;2023-02-15T01:00:29;94221.53;;;-0.16;78.60
45793;BME280;31495;42.740;22.908;2023-02-15T01:01:28;94245.88;;;-0.02;78.67
45793;BME280;31495;42.740;22.908;2023-02-15T01:02:28;94264.63;;;0.08;78.56
45793;BME280;31495;42.740;22.908;2023-02-15T01:03:27;94261.03;;;-0.01;78.75
45793;BME280;31495;42.740;22.908;2023-02-15T01:04:27;94253.28;;;0.01;78.72
45793;BME280;31495;42.740;22.908;2023-02-15T01:05:26;94259.91;;;0.04;78.76
45793;BME280;31495;42.740;22.908;2023-02-15T01:06:26;94251.09;;;-0.04;78.77
45793;BME280;31495;42.740;22.908;2023-02-15T01:07:25;94245.88;;;-0.02;78.76
45793;BME280;31495;42.740;22.908;2023-02-15T01:08:25;94226.94;;;-0.09;78.40
45793;BME280;31495;42.740;22.908;2023-02-15T01:09:24;94252.94;;;0.17;78.51
45793;BME280;31495;42.740;22.908;2023-02-15T01:10:24;94197.13;;;-0.19;78.13
45793;BME280;31495;42.740;22.908;2023-02-15T01:11:24;94253.50;;;0.09;78.47
45793;BME280;31495;42.740;22.908;2023-02-15T01:12:23;94256.06;;;0.09;78.70
45793;BME280;31495;42.740;22.908;2023-02-15T01:13:22;94250.63;;;0.03;78.77
45793;BME280;31495;42.740;22.908;2023-02-15T01:14:22;94232.84;;;-0.09;78.78
45793;BME280;31495;42.740;22.908;2023-02-15T01:15:22;94256.16;;;0.19;78.57
45793;BME280;31495;42.740;22.908;2023-02-15T01:16:24;94263.69;;;0.09;78.75
45793;BME280;31495;42.740;22.908;2023-02-15T01:17:24;94261.25;;;0.08;78.91
45793;BME280;31495;42.740;22.908;2023-02-15T01:18:24;94254.53;;;0.18;78.54
45793;BME280;31495;42.740;22.908;2023-02-15T01:19:23;94256.06;;;0.09;78.53
45793;BME280;31495;42.740;22.908;2023-02-15T01:20:26;94246.59;;;0.00;78.99
45793;BME280;31495;42.740;22.908;2023-02-15T01:21:26;94251.06;;;0.19;78.60
45793;BME280;31495;42.740;22.908;2023-02-15T01:22:26;94158.44;;;-0.56;78.73
45793;BME280;31495;42.740;22.908;2023-02-15T01:23:25;94260.22;;;0.22;78.64
45793;BME280;31495;42.740;22.908;2023-02-15T01:24:25;94239.88;;;0.10;78.62
45793;BME280;31495;42.740;22.908;2023-02-15T01:25:24;94255.72;;;0.03;79.00
45793;BME280;31495;42.740;22.908;2023-02-15T01:26:24;94228.09;;;-0.13;79.25
45793;BME280;31495;42.740;22.908;2023-02-15T01:27:23;94252.81;;;0.07;79.08
45793;BME280;31495;42.740;22.908;2023-02-15T01:28:23;94251.06;;;0.08;79.29
45793;BME280;31495;42.740;22.908;2023-02-15T01:29:22;94250.75;;;0.01;79.31
45793;BME280;31495;42.740;22.908;2023-02-15T01:30:22;94250.50;;;0.04;79.54
45793;BME280;31495;42.740;22.908;2023-02-15T01:31:21;94190.22;;;-0.28;79.34
45793;BME280;31495;42.740;22.908;2023-02-15T01:32:21;94252.16;;;0.05;79.47
45793;BME280;31495;42.740;22.908;2023-02-15T01:33:20;94242.44;;;-0.01;79.80
45793;BME280;31495;42.740;22.908;2023-02-15T01:34:20;94203.84;;;-0.17;79.26
45793;BME280;31495;42.740;22.908;2023-02-15T01:35:19;94240.66;;;0.22;79.14
45793;BME280;31495;42.740;22.908;2023-02-15T01:36:19;94210.84;;;0.02;79.01
45793;BME280;31495;42.740;22.908;2023-02-15T01:37:18;94212.00;;;-0.03;79.12
45793;BME280;31495;42.740;22.908;2023-02-15T01:38:17;94206.59;;;-0.09;78.76
45793;BME280;31495;42.740;22.908;2023-02-15T01:39:17;94205.19;;;-0.02;78.85
45793;BME280;31495;42.740;22.908;2023-02-15T01:40:17;94228.38;;;0.16;78.97
45793;BME280;31495;42.740;22.908;2023-02-15T01:41:17;94238.00;;;0.12;79.39
45793;BME280;31495;42.740;22.908;2023-02-15T01:42:23;94191.22;;;-0.08;79.66
45793;BME280;31495;42.740;22.908;2023-02-15T01:43:39;94201.25;;;0.05;79.06
45793;BME280;31495;42.740;22.908;2023-02-15T01:45:49;94186.34;;;-0.11;78.91
45793;BME280;31495;42.740;22.908;2023-02-15T01:46:51;94212.00;;;-0.03;79.58
45793;BME280;31495;42.740;22.908;2023-02-15T01:49:01;94228.50;;;0.14;79.14
45793;BME280;31495;42.740;22.908;2023-02-15T01:50:22;94210.03;;;0.01;79.28
45793;BME280;31495;42.740;22.908;2023-02-15T01:51:24;94211.66;;;0.02;78.96
45793;BME280;31495;42.740;22.908;2023-02-15T01:52:26;94237.31;;;0.10;79.57
45793;BME280;31495;42.740;22.908;2023-02-15T01:53:45;94226.47;;;-0.03;79.69
45793;BME280;31495;42.740;22.908;2023-02-15T01:54:47;94221.63;;;-0.06;79.92
45793;BME280;31495;42.740;22.908;2023-02-15T01:56:09;94236.75;;;0.07;79.96
45793;BME280;31495;42.740;22.908;2023-02-15T01:57:13;94223.00;;;-0.02;79.86
45793;BME280;31495;42.740;22.908;2023-02-15T01:58:13;94238.22;;;0.21;79.75
45793;BME280;31495;42.740;22.908;2023-02-15T01:59:18;94211.56;;;-0.08;79.84
45793;BME280;31495;42.740;22.908;2023-02-15T02:00:19;94234.66;;;0.12;80.12
45793;BME280;31495;42.740;22.908;2023-02-15T02:01:21;94232.91;;;0.12;79.81
45793;BME280;31495;42.740;22.908;2023-02-15T02:02:21;94188.69;;;-0.19;79.83
45793;BME280;31495;42.740;22.908;2023-02-15T02:03:49;94238.91;;;0.23;79.99
45793;BME280;31495;42.740;22.908;2023-02-15T02:04:54;94227.72;;;0.14;79.92
45793;BME280;31495;42.740;22.908;2023-02-15T02:05:57;94188.44;;;-0.16;79.95
45793;BME280;31495;42.740;22.908;2023-02-15T02:06:57;94186.81;;;-0.17;80.03
45793;BME280;31495;42.740;22.908;2023-02-15T02:07:58;94228.28;;;0.17;79.93
45793;BME280;31495;42.740;22.908;2023-02-15T02:08:59;94228.16;;;0.19;80.07
45793;BME280;31495;42.740;22.908;2023-02-15T02:09:59;94202.28;;;0.03;79.82
45793;BME280;31495;42.740;22.908;2023-02-15T02:10:59;94216.34;;;0.18;79.82
45793;BME280;31495;42.740;22.908;2023-02-15T02:11:59;94191.19;;;0.04;79.65
45793;BME280;31495;42.740;22.908;2023-02-15T02:13:03;94144.16;;;-0.25;79.57
45793;BME280;31495;42.740;22.908;2023-02-15T02:14:03;94220.41;;;0.21;79.33
45793;BME280;31495;42.740;22.908;2023-02-15T02:15:03;94196.53;;;-0.11;79.85
45793;BME280;31495;42.740;22.908;2023-02-15T02:17:37;94222.97;;;0.09;80.06
45793;BME280;31495;42.740;22.908;2023-02-15T02:18:47;94228.50;;;0.14;80.05
45793;BME280;31495;42.740;22.908;2023-02-15T02:35:00;94231.69;;;0.39;79.15
45793;BME280;31495;42.740;22.908;2023-02-15T02:37:29;94198.09;;;0.02;79.24
45793;BME280;31495;42.740;22.908;2023-02-15T02:41:32;94217.06;;;0.20;79.06
45793;BME280;31495;42.740;22.908;2023-02-15T02:42:40;94197.41;;;0.11;79.15
45793;BME280;31495;42.740;22.908;2023-02-15T02:44:50;94227.56;;;0.27;79.14
45793;BME280;31495;42.740;22.908;2023-02-15T02:45:57;94237.28;;;0.33;79.14
45793;BME280;31495;42.740;22.908;2023-02-15T02:47:01;94240.75;;;0.32;79.15
45793;BME280;31495;42.740;22.908;2023-02-15T02:48:15;94209.97;;;0.24;78.36
45793;BME280;31495;42.740;22.908;2023-02-15T02:49:15;94230.22;;;0.25;78.93
45793;BME280;31495;42.740;22.908;2023-02-15T02:50:23;94222.84;;;0.11;79.43
45793;BME280;31495;42.740;22.908;2023-02-15T02:51:23;94245.63;;;0.24;79.43
45793;BME280;31495;42.740;22.908;2023-02-15T02:52:40;94246.06;;;0.29;79.51
45793;BME280;31495;42.740;22.908;2023-02-15T02:53:39;94247.16;;;0.47;79.05
45793;BME280;31495;42.740;22.908;2023-02-15T02:54:39;94251.81;;;0.42;78.59
45793;BME280;31495;42.740;22.908;2023-02-15T02:55:56;94235.75;;;0.30;78.61
45793;BME280;31495;42.740;22.908;2023-02-15T02:57:01;94248.25;;;0.33;78.85
45793;BME280;31495;42.740;22.908;2023-02-15T02:59:33;94243.88;;;0.24;79.37
45793;BME280;31495;42.740;22.908;2023-02-15T03:00:44;94256.34;;;0.39;79.08
45793;BME280;31495;42.740;22.908;2023-02-15T03:01:51;94257.88;;;0.30;79.21
45793;BME280;31495;42.740;22.908;2023-02-15T03:02:56;94253.00;;;0.38;79.01
45793;BME280;31495;42.740;22.908;2023-02-15T03:04:07;94255.03;;;0.44;78.67
45793;BME280;31495;42.740;22.908;2023-02-15T03:05:13;94213.81;;;0.18;78.79
45793;BME280;31495;42.740;22.908;2023-02-15T03:06:18;94245.69;;;0.45;79.04
45793;BME280;31495;42.740;22.908;2023-02-15T03:07:20;94253.75;;;0.50;78.58
45793;BME280;31495;42.740;22.908;2023-02-15T03:08:28;94238.16;;;0.43;78.62
45793;BME280;31495;42.740;22.908;2023-02-15T03:09:35;94237.97;;;0.24;78.90
45793;BME280;31495;42.740;22.908;2023-02-15T03:10:45;94214.53;;;0.09;79.53
45793;BME280;31495;42.740;22.908;2023-02-15T03:11:45;94224.84;;;0.07;79.68
45793;BME280;31495;42.740;22.908;2023-02-15T03:12:45;94226.38;;;-0.02;79.90
45793;BME280;31495;42.740;22.908;2023-02-15T03:13:46;94250.25;;;0.30;79.70
45793;BME280;31495;42.740;22.908;2023-02-15T03:14:55;94247.25;;;0.25;79.44
45793;BME280;31495;42.740;22.908;2023-02-15T03:15:56;94250.69;;;0.35;79.43
45793;BME280;31495;42.740;22.908;2023-02-15T03:17:17;94227.31;;;0.30;79.48
45793;BME280;31495;42.740;22.908;2023-02-15T03:18:22;94225.59;;;0.19;79.47
45793;BME280;31495;42.740;22.908;2023-02-15T03:19:30;94144.75;;;-0.21;79.14
45793;BME280;31495;42.740;22.908;2023-02-15T03:20:33;94253.16;;;0.58;78.92
45793;BME280;31495;42.740;22.908;2023-02-15T03:21:44;94215.72;;;0.37;78.64
45793;BME280;31495;42.740;22.908;2023-02-15T03:23:14;94229.53;;;0.23;79.11
45793;BME280;31495;42.740;22.908;2023-02-15T03:24:20;94231.25;;;0.23;79.42
45793;BME280;31495;42.740;22.908;2023-02-15T03:25:27;94240.66;;;0.22;79.93
45793;BME280;31495;42.740;22.908;2023-02-15T03:26:30;94253.03;;;0.27;79.86
45793;BME280;31495;42.740;22.908;2023-02-15T03:27:43;94249.78;;;0.25;80.05
45793;BME280;31495;42.740;22.908;2023-02-15T03:28:45;94231.72;;;0.28;79.56
45793;BME280;31495;42.740;22.908;2023-02-15T03:29:50;94249.19;;;0.21;79.48
45793;BME280;31495;42.740;22.908;2023-02-15T03:30:53;94257.53;;;0.34;79.62
45793;BME280;31495;42.740;22.908;2023-02-15T03:31:59;94200.09;;;-0.02;79.24
45793;BME280;31495;42.740;22.908;2023-02-15T03:33:00;94259.25;;;0.34;79.41
45793;BME280;31495;42.740;22.908;2023-02-15T03:34:04;94262.75;;;0.54;78.92
45793;BME280;31495;42.740;22.908;2023-02-15T03:35:06;94260.97;;;0.45;78.87
45793;BME280;31495;42.740;22.908;2023-02-15T03:36:29;94231.72;;;0.28;79.16
45793;BME280;31495;42.740;22.908;2023-02-15T03:37:39;94263.78;;;0.63;78.58
45793;BME280;31495;42.740;22.908;2023-02-15T03:40:19;94259.03;;;0.69;77.81
45793;BME280;31495;42.740;22.908;2023-02-15T03:41:41;94209.84;;;0.36;78.17
45793;BME280;31495;42.740;22.908;2023-02-15T03:42:48;94230.72;;;0.51;77.93
45793;BME280;31495;42.740;22.908;2023-02-15T03:43:57;94255.88;;;0.77;77.80
45793;BME280;31495;42.740;22.908;2023-02-15T03:45:11;94256.63;;;0.89;77.00
45793;BME280;31495;42.740;22.908;2023-02-15T03:46:20;94238.47;;;0.82;77.01
45793;BME280;31495;42.740;22.908;2023-02-15T03:47:26;94252.00;;;0.83;76.83
45793;BME280;31495;42.740;22.908;2023-02-15T03:48:31;94235.78;;;0.63;77.27
45793;BME280;31495;42.740;22.908;2023-02-15T03:49:43;94225.03;;;0.59;77.16
45793;BME280;31495;42.740;22.908;2023-02-15T03:50:45;94252.38;;;0.78;77.09
45793;BME280;31495;42.740;22.908;2023-02-15T03:52:05;94252.38;;;0.78;77.01
45793;BME280;31495;42.740;22.908;2023-02-15T03:53:09;94256.97;;;0.84;77.13
45793;BME280;31495;42.740;22.908;2023-02-15T03:54:18;94248.78;;;0.81;76.95
45793;BME280;31495;42.740;22.908;2023-02-15T03:55:38;94261.09;;;0.97;76.50
45793;BME280;31495;42.740;22.908;2023-02-15T03:56:41;94257.97;;;0.93;76.60
45793;BME280;31495;42.740;22.908;2023-02-15T03:57:41;94269.69;;;0.96;76.77
45793;BME280;31495;42.740;22.908;2023-02-15T03:59:00;94206.22;;;0.71;76.22
45793;BME280;31495;42.740;22.908;2023-02-15T04:00:24;94235.28;;;0.90;76.07
45793;BME280;31495;42.740;22.908;2023-02-15T04:04:03;94261.75;;;0.78;77.05
45793;BME280;31495;42.740;22.908;2023-02-15T04:05:05;94264.50;;;0.86;77.05
45793;BME280;31495;42.740;22.908;2023-02-15T04:06:05;94262.53;;;0.89;77.07
45793;BME280;31495;42.740;22.908;2023-02-15T04:07:06;94261.84;;;0.87;77.16
45793;BME280;31495;42.740;22.908;2023-02-15T04:08:06;94268.53;;;0.88;77.14
45793;BME280;31495;42.740;22.908;2023-02-15T04:09:06;94202.72;;;0.51;76.50
45793;BME280;31495;42.740;22.908;2023-02-15T04:10:25;94233.00;;;0.66;76.86
45793;BME280;31495;42.740;22.908;2023-02-15T04:11:43;94266.53;;;0.71;77.35
45793;BME280;31495;42.740;22.908;2023-02-15T04:12:43;94227.28;;;0.41;77.96
45793;BME280;31495;42.740;22.908;2023-02-15T04:13:42;94269.13;;;0.60;78.21
45793;BME280;31495;42.740;22.908;2023-02-15T04:14:41;94243.38;;;0.42;78.34
45793;BME280;31495;42.740;22.908;2023-02-15T04:16:00;94267.09;;;0.75;77.88
45793;BME280;31495;42.740;22.908;2023-02-15T04:17:06;94259.13;;;0.68;77.86
45793;BME280;31495;42.740;22.908;2023-02-15T04:18:06;94217.22;;;0.40;77.87
45793;BME280;31495;42.740;22.908;2023-02-15T04:19:05;94265.28;;;0.65;78.21
45793;BME280;31495;42.740;22.908;2023-02-15T04:20:24;94248.94;;;0.68;77.90
45793;BME280;31495;42.740;22.908;2023-02-15T04:21:42;94221.91;;;0.55;77.57
45793;BME280;31495;42.740;22.908;2023-02-15T04:23:00;94273.56;;;0.79;77.38
45793;BME280;31495;42.740;22.908;2023-02-15T04:24:19;94279.53;;;0.68;77.91
45793;BME280;31495;42.740;22.908;2023-02-15T04:25:38;94274.22;;;0.60;78.49
45793;BME280;31495;42.740;22.908;2023-02-15T04:26:37;94280.19;;;0.70;78.28
45793;BME280;31495;42.740;22.908;2023-02-15T04:27:37;94256.75;;;0.55;78.14
45793;BME280;31495;42.740;22.908;2023-02-15T04:28:37;94267.63;;;0.57;77.90
45793;BME280;31495;42.740;22.908;2023-02-15T04:29:36;94282.94;;;0.78;77.98
45793;BME280;31495;42.740;22.908;2023-02-15T04:30:35;94288.53;;;0.72;77.88
45793;BME280;31495;42.740;22.908;2023-02-15T04:31:35;94288.69;;;0.59;78.05
45793;BME280;31495;42.740;22.908;2023-02-15T04:32:35;94290.75;;;0.65;78.13
45793;BME280;31495;42.740;22.908;2023-02-15T04:33:34;94293.53;;;0.62;78.31
45793;BME280;31495;42.740;22.908;2023-02-15T04:34:34;94270.53;;;0.52;78.47
45793;BME280;31495;42.740;22.908;2023-02-15T04:35:34;94276.78;;;0.48;78.50
45793;BME280;31495;42.740;22.908;2023-02-15T04:36:33;94233.94;;;0.21;78.44
45793;BME280;31495;42.740;22.908;2023-02-15T04:37:33;94284.13;;;0.42;78.73
45793;BME280;31495;42.740;22.908;2023-02-15T04:38:32;94301.09;;;0.52;78.52
45793;BME280;31495;42.740;22.908;2023-02-15T04:39:32;94281.44;;;0.43;78.83
45793;BME280;31495;42.740;22.908;2023-02-15T04:40:31;94275.56;;;0.43;78.67
45793;BME280;31495;42.740;22.908;2023-02-15T04:41:31;94262.63;;;0.34;78.66
45793;BME280;31495;42.740;22.908;2023-02-15T04:42:30;94289.84;;;0.55;78.85
45793;BME280;31495;42.740;22.908;2023-02-15T04:43:30;94258.38;;;0.12;78.79
45793;BME280;31495;42.740;22.908;2023-02-15T04:44:29;94298.09;;;0.36;79.23
45793;BME280;31495;42.740;22.908;2023-02-15T04:45:29;94289.69;;;0.24;79.57
45793;BME280;31495;42.740;22.908;2023-02-15T04:46:28;94294.88;;;0.34;79.27
45793;BME280;31495;42.740;22.908;2023-02-15T04:47:28;94301.00;;;0.43;79.25
45793;BME280;31495;42.740;22.908;2023-02-15T04:48:28;94285.53;;;0.34;79.13
45793;BME280;31495;42.740;22.908;2023-02-15T04:49:27;94271.53;;;0.29;78.86
45793;BME280;31495;42.740;22.908;2023-02-15T04:50:27;94289.09;;;0.43;78.91
45793;BME280;31495;42.740;22.908;2023-02-15T04:51:26;94297.25;;;0.58;78.55
45793;BME280;31495;42.740;22.908;2023-02-15T04:52:26;94271.72;;;0.48;78.02
45793;BME280;31495;42.740;22.908;2023-02-15T04:53:25;94301.88;;;0.64;78.21
45793;BME280;31495;42.740;22.908;2023-02-15T04:54:25;94276.44;;;0.53;77.59
45793;BME280;31495;42.740;22.908;2023-02-15T04:55:24;94275.19;;;0.36;78.43
45793;BME280;31495;42.740;22.908;2023-02-15T04:56:23;94268.75;;;0.32;78.56
45793;BME280;31495;42.740;22.908;2023-02-15T04:57:23;94287.44;;;0.53;78.29
45793;BME280;31495;42.740;22.908;2023-02-15T04:58:22;94274.38;;;0.47;78.00
45793;BME280;31495;42.740;22.908;2023-02-15T04:59:22;94307.91;;;0.63;78.14
45793;BME280;31495;42.740;22.908;2023-02-15T05:00:21;94249.19;;;0.21;78.06
45793;BME280;31495;42.740;22.908;2023-02-15T05:01:21;94311.16;;;0.54;78.45
45793;BME280;31495;42.740;22.908;2023-02-15T05:02:21;94310.78;;;0.59;78.50
45793;BME280;31495;42.740;22.908;2023-02-15T05:03:20;94325.47;;;0.66;78.07
45793;BME280;31495;42.740;22.908;2023-02-15T05:04:20;94267.81;;;0.33;78.19
45793;BME280;31495;42.740;22.908;2023-02-15T05:05:19;94280.59;;;0.54;77.89
45793;BME280;31495;42.740;22.908;2023-02-15T05:06:19;94269.97;;;0.49;77.57
45793;BME280;31495;42.740;22.908;2023-02-15T05:07:18;94279.09;;;0.51;77.70
45793;BME280;31495;42.740;22.908;2023-02-15T05:08:19;94284.53;;;0.58;77.41
45793;BME280;31495;42.740;22.908;2023-02-15T05:09:18;94315.63;;;0.73;77.42
45793;BME280;31495;42.740;22.908;2023-02-15T05:10:18;94271.47;;;0.51;77.21
45793;BME280;31495;42.740;22.908;2023-02-15T05:11:17;94304.88;;;0.69;77.29
45793;BME280;31495;42.740;22.908;2023-02-15T05:12:17;94286.66;;;0.42;77.89
45793;BME280;31495;42.740;22.908;2023-02-15T05:13:16;94290.63;;;0.34;78.16
45793;BME280;31495;42.740;22.908;2023-02-15T05:14:16;94284.69;;;0.45;78.15
45793;BME280;31495;42.740;22.908;2023-02-15T05:15:16;94314.69;;;0.74;77.47
45793;BME280;31495;42.740;22.908;2023-02-15T05:16:15;94319.88;;;0.84;77.02
45793;BME280;31495;42.740;22.908;2023-02-15T05:17:15;94320.44;;;0.87;77.25
45793;BME280;31495;42.740;22.908;2023-02-15T05:18:15;94316.75;;;0.80;77.22
45793;BME280;31495;42.740;22.908;2023-02-15T05:19:14;94320.03;;;0.71;77.54
45793;BME280;31495;42.740;22.908;2023-02-15T05:20:14;94304.06;;;0.69;77.47
45793;BME280;31495;42.740;22.908;2023-02-15T05:21:13;94308.91;;;0.72;77.22
45793;BME280;31495;42.740;22.908;2023-02-15T05:22:15;94299.78;;;0.69;77.08
45793;BME280;31495;42.740;22.908;2023-02-15T05:23:15;94327.44;;;0.74;77.25
45793;BME280;31495;42.740;22.908;2023-02-15T05:24:14;94315.25;;;0.78;77.33
45793;BME280;31495;42.740;22.908;2023-02-15T05:25:32;94307.88;;;0.75;76.85
45793;BME280;31495;42.740;22.908;2023-02-15T05:26:51;94332.31;;;0.98;76.19
45793;BME280;31495;42.740;22.908;2023-02-15T05:28:12;94335.47;;;1.02;76.17
45793;BME280;31495;42.740;22.908;2023-02-15T05:29:21;94341.34;;;1.02;76.22
45793;BME280;31495;42.740;22.908;2023-02-15T05:30:20;94323.78;;;0.88;76.56
45793;BME280;31495;42.740;22.908;2023-02-15T05:31:20;94339.44;;;0.83;77.19
45793;BME280;31495;42.740;22.908;2023-02-15T05:32:19;94308.00;;;0.62;77.25
45793;BME280;31495;42.740;22.908;2023-02-15T05:33:19;94127.59;;;-0.51;77.11
45793;BME280;31495;42.740;22.908;2023-02-15T05:34:19;94271.66;;;0.60;76.68
45793;BME280;31495;42.740;22.908;2023-02-15T05:35:18;94341.94;;;0.95;76.94
45793;BME280;31495;42.740;22.908;2023-02-15T05:36:18;94305.91;;;0.67;77.43
45793;BME280;31495;42.740;22.908;2023-02-15T05:37:17;94319.56;;;0.77;77.22
45793;BME280;31495;42.740;22.908;2023-02-15T05:38:16;94336.41;;;0.89;77.26
45793;BME280;31495;42.740;22.908;2023-02-15T05:39:16;94325.91;;;0.83;77.32
45793;BME280;31495;42.740;22.908;2023-02-15T05:40:16;94280.84;;;0.51;77.17
45793;BME280;31495;42.740;22.908;2023-02-15T05:41:16;94303.38;;;0.55;77.39
45793;BME280;31495;42.740;22.908;2023-02-15T05:42:15;94342.97;;;0.71;77.64
45793;BME280;31495;42.740;22.908;2023-02-15T05:43:15;94314.97;;;0.60;77.69
45793;BME280;31495;42.740;22.908;2023-02-15T05:44:14;94295.78;;;0.44;77.73
45793;BME280;31495;42.740;22.908;2023-02-15T05:45:14;94270.59;;;0.30;77.16
45793;BME280;31495;42.740;22.908;2023-02-15T05:46:14;94317.97;;;0.65;77.29
45793;BME280;31495;42.740;22.908;2023-02-15T05:47:14;94345.84;;;0.78;77.64
45793;BME280;31495;42.740;22.908;2023-02-15T05:48:13;94321.53;;;0.62;77.32
45793;BME280;31495;42.740;22.908;2023-02-15T05:49:13;94349.44;;;0.64;77.94
45793;BME280;31495;42.740;22.908;2023-02-15T05:50:12;94344.13;;;0.67;78.21
45793;BME280;31495;42.740;22.908;2023-02-15T05:51:12;94299.16;;;0.45;77.90
45793;BME280;31495;42.740;22.908;2023-02-15T05:52:13;94347.59;;;0.77;77.68
45793;BME280;31495;42.740;22.908;2023-02-15T05:53:12;94320.34;;;0.34;78.36
45793;BME280;31495;42.740;22.908;2023-02-15T05:54:12;94291.22;;;0.15;78.62
45793;BME280;31495;42.740;22.908;2023-02-15T05:55:11;94337.44;;;0.54;78.35
45793;BME280;31495;42.740;22.908;2023-02-15T05:56:11;94353.19;;;0.60;78.49
45793;BME280;31495;42.740;22.908;2023-02-15T05:57:11;94347.50;;;0.56;78.72
45793;BME280;31495;42.740;22.908;2023-02-15T05:58:10;94286.78;;;0.29;78.51
45793;BME280;31495;42.740;22.908;2023-02-15T05:59:10;94352.00;;;0.64;78.30
45793;BME280;31495;42.740;22.908;2023-02-15T06:00:11;94336.03;;;0.62;78.24
45793;BME280;31495;42.740;22.908;2023-02-15T06:01:13;94318.97;;;0.41;77.94